sensor_id;sensor_type;location;lat;lon;timestamp;temperature;humidity
27492;DHT22;14927;51.210;6.838;2024-02-26T00:01:48;12.60;52.50
27492;DHT22;14927;51.210;6.838;2024-02-26T00:04:32;12.60;52.40
27492;DHT22;14927;51.210;6.838;2024-02-26T00:07:17;12.50;52.40
27492;DHT22;14927;51.210;6.838;2024-02-26T00:10:02;12.60;52.30
27492;DHT22;14927;51.210;6.838;2024-02-26T00:12:47;12.60;52.20
27492;DHT22;14927;51.210;6.838;2024-02-26T00:15:31;12.60;52.10
27492;DHT22;14927;51.210;6.838;2024-02-26T00:18:16;12.60;52.00
27492;DHT22;14927;51.210;6.838;2024-02-26T00:21:02;12.60;52.00
27492;DHT22;14927;51.210;6.838;2024-02-26T00:23:47;12.70;52.00
27492;DHT22;14927;51.210;6.838;2024-02-26T00:26:31;12.70;51.90
27492;DHT22;14927;51.210;6.838;2024-02-26T00:29:17;12.70;51.80
27492;DHT22;14927;51.210;6.838;2024-02-26T00:32:02;12.70;51.80
27492;DHT22;14927;51.210;6.838;2024-02-26T00:34:46;12.70;51.90
27492;DHT22;14927;51.210;6.838;2024-02-26T00:37:31;12.80;52.00
27492;DHT22;14927;51.210;6.838;2024-02-26T00:40:16;12.70;51.90
27492;DHT22;14927;51.210;6.838;2024-02-26T00:43:00;12.70;51.90
27492;DHT22;14927;51.210;6.838;2024-02-26T00:45:45;12.80;52.10
27492;DHT22;14927;51.210;6.838;2024-02-26T00:48:31;12.80;52.10
27492;DHT22;14927;51.210;6.838;2024-02-26T00:51:15;12.70;52.10
27492;DHT22;14927;51.210;6.838;2024-02-26T00:54:00;12.80;52.10
27492;DHT22;14927;51.210;6.838;2024-02-26T00:56:44;12.90;52.10
27492;DHT22;14927;51.210;6.838;2024-02-26T00:59:29;12.70;52.00
27492;DHT22;14927;51.210;6.838;2024-02-26T01:02:14;12.80;52.20
27492;DHT22;14927;51.210;6.838;2024-02-26T01:04:58;12.80;52.50
27492;DHT22;14927;51.210;6.838;2024-02-26T01:07:42;12.80;52.70
27492;DHT22;14927;51.210;6.838;2024-02-26T01:10:27;12.70;52.60
27492;DHT22;14927;51.210;6.838;2024-02-26T01:13:12;12.80;52.60
27492;DHT22;14927;51.210;6.838;2024-02-26T01:15:56;12.70;52.60
27492;DHT22;14927;51.210;6.838;2024-02-26T01:18:41;12.70;52.50
27492;DHT22;14927;51.210;6.838;2024-02-26T01:21:26;12.70;52.50
27492;DHT22;14927;51.210;6.838;2024-02-26T01:24:13;12.70;52.60
27492;DHT22;14927;51.210;6.838;2024-02-26T01:26:57;12.70;52.80
27492;DHT22;14927;51.210;6.838;2024-02-26T01:29:42;12.70;53.00
27492;DHT22;14927;51.210;6.838;2024-02-26T01:32:26;12.70;53.20
27492;DHT22;14927;51.210;6.838;2024-02-26T01:35:11;12.70;53.40
27492;DHT22;14927;51.210;6.838;2024-02-26T01:37:56;12.70;53.50
27492;DHT22;14927;51.210;6.838;2024-02-26T01:40:42;12.60;53.60
27492;DHT22;14927;51.210;6.838;2024-02-26T01:43:26;12.60;53.80
27492;DHT22;14927;51.210;6.838;2024-02-26T01:46:14;12.80;54.20
27492;DHT22;14927;51.210;6.838;2024-02-26T01:48:58;12.80;54.40
27492;DHT22;14927;51.210;6.838;2024-02-26T01:51:44;12.60;54.50
27492;DHT22;14927;51.210;6.838;2024-02-26T01:54:29;12.60;55.40
27492;DHT22;14927;51.210;6.838;2024-02-26T01:57:15;12.60;55.10
27492;DHT22;14927;51.210;6.838;2024-02-26T02:00:00;12.50;55.30
27492;DHT22;14927;51.210;6.838;2024-02-26T02:02:44;12.50;55.50
27492;DHT22;14927;51.210;6.838;2024-02-26T02:05:31;12.50;55.70
27492;DHT22;14927;51.210;6.838;2024-02-26T02:08:16;12.70;56.00
27492;DHT22;14927;51.210;6.838;2024-02-26T02:11:00;12.50;56.10
27492;DHT22;14927;51.210;6.838;2024-02-26T02:13:45;12.40;56.30
27492;DHT22;14927;51.210;6.838;2024-02-26T02:16:30;12.40;56.60
27492;DHT22;14927;51.210;6.838;2024-02-26T02:19:14;12.40;57.00
27492;DHT22;14927;51.210;6.838;2024-02-26T02:21:59;12.40;57.10
27492;DHT22;14927;51.210;6.838;2024-02-26T02:24:45;12.40;57.30
27492;DHT22;14927;51.210;6.838;2024-02-26T02:27:30;12.30;57.40
27492;DHT22;14927;51.210;6.838;2024-02-26T02:30:15;12.30;57.50
27492;DHT22;14927;51.210;6.838;2024-02-26T02:33:00;12.30;57.70
27492;DHT22;14927;51.210;6.838;2024-02-26T02:35:44;12.30;57.80
27492;DHT22;14927;51.210;6.838;2024-02-26T02:38:29;12.20;58.10
27492;DHT22;14927;51.210;6.838;2024-02-26T02:41:16;12.20;58.50
27492;DHT22;14927;51.210;6.838;2024-02-26T02:44:00;12.20;58.80
27492;DHT22;14927;51.210;6.838;2024-02-26T02:46:45;12.10;59.00
27492;DHT22;14927;51.210;6.838;2024-02-26T02:49:29;12.10;59.10
27492;DHT22;14927;51.210;6.838;2024-02-26T02:52:14;12.10;59.30
27492;DHT22;14927;51.210;6.838;2024-02-26T02:54:59;12.00;59.50
27492;DHT22;14927;51.210;6.838;2024-02-26T02:57:43;12.20;59.80
27492;DHT22;14927;51.210;6.838;2024-02-26T03:00:28;12.10;59.90
27492;DHT22;14927;51.210;6.838;2024-02-26T03:03:13;12.00;60.00
27492;DHT22;14927;51.210;6.838;2024-02-26T03:05:59;12.00;60.20
27492;DHT22;14927;51.210;6.838;2024-02-26T03:08:43;12.10;60.30
27492;DHT22;14927;51.210;6.838;2024-02-26T03:11:29;11.90;60.30
27492;DHT22;14927;51.210;6.838;2024-02-26T03:14:14;11.90;60.40
27492;DHT22;14927;51.210;6.838;2024-02-26T03:16:58;12.00;60.50
27492;DHT22;14927;51.210;6.838;2024-02-26T03:19:44;12.00;60.60
27492;DHT22;14927;51.210;6.838;2024-02-26T03:22:31;11.90;60.50
27492;DHT22;14927;51.210;6.838;2024-02-26T03:25:15;11.90;60.60
27492;DHT22;14927;51.210;6.838;2024-02-26T03:28:00;11.90;60.60
27492;DHT22;14927;51.210;6.838;2024-02-26T03:30:44;11.80;60.60
27492;DHT22;14927;51.210;6.838;2024-02-26T03:33:29;11.80;60.80
27492;DHT22;14927;51.210;6.838;2024-02-26T03:36:14;11.80;60.80
27492;DHT22;14927;51.210;6.838;2024-02-26T03:38:58;11.80;60.80
27492;DHT22;14927;51.210;6.838;2024-02-26T03:41:43;11.80;61.10
27492;DHT22;14927;51.210;6.838;2024-02-26T03:44:27;11.80;61.10
27492;DHT22;14927;51.210;6.838;2024-02-26T03:47:12;11.80;61.20
27492;DHT22;14927;51.210;6.838;2024-02-26T03:49:57;11.80;61.20
27492;DHT22;14927;51.210;6.838;2024-02-26T03:52:43;11.80;61.20
27492;DHT22;14927;51.210;6.838;2024-02-26T03:55:27;11.70;61.30
27492;DHT22;14927;51.210;6.838;2024-02-26T03:58:12;11.70;61.30
27492;DHT22;14927;51.210;6.838;2024-02-26T04:00:57;11.70;62.20
27492;DHT22;14927;51.210;6.838;2024-02-26T04:03:43;11.70;61.40
27492;DHT22;14927;51.210;6.838;2024-02-26T04:06:27;11.80;61.50
27492;DHT22;14927;51.210;6.838;2024-02-26T04:09:14;11.90;61.70
27492;DHT22;14927;51.210;6.838;2024-02-26T04:11:59;11.70;61.60
27492;DHT22;14927;51.210;6.838;2024-02-26T04:14:43;11.70;62.30
27492;DHT22;14927;51.210;6.838;2024-02-26T04:17:28;11.70;61.70
27492;DHT22;14927;51.210;6.838;2024-02-26T04:20:14;11.70;61.60
27492;DHT22;14927;51.210;6.838;2024-02-26T04:23:03;11.70;61.60
27492;DHT22;14927;51.210;6.838;2024-02-26T04:25:48;11.70;61.60
27492;DHT22;14927;51.210;6.838;2024-02-26T04:28:32;11.70;62.30
27492;DHT22;14927;51.210;6.838;2024-02-26T04:31:17;11.70;61.40
27492;DHT22;14927;51.210;6.838;2024-02-26T04:34:02;11.60;61.40
27492;DHT22;14927;51.210;6.838;2024-02-26T04:36:47;11.60;61.40
27492;DHT22;14927;51.210;6.838;2024-02-26T04:39:31;11.60;61.40
27492;DHT22;14927;51.210;6.838;2024-02-26T04:42:16;11.60;61.40
27492;DHT22;14927;51.210;6.838;2024-02-26T04:45:01;11.60;61.30
27492;DHT22;14927;51.210;6.838;2024-02-26T04:47:46;11.70;61.30
27492;DHT22;14927;51.210;6.838;2024-02-26T04:50:31;11.60;61.20
27492;DHT22;14927;51.210;6.838;2024-02-26T04:53:18;11.50;61.30
27492;DHT22;14927;51.210;6.838;2024-02-26T04:56:03;11.40;61.40
27492;DHT22;14927;51.210;6.838;2024-02-26T04:58:48;11.40;61.50
27492;DHT22;14927;51.210;6.838;2024-02-26T05:01:32;11.40;61.70
27492;DHT22;14927;51.210;6.838;2024-02-26T05:04:17;11.40;61.90
27492;DHT22;14927;51.210;6.838;2024-02-26T05:07:01;11.30;62.10
27492;DHT22;14927;51.210;6.838;2024-02-26T05:09:47;11.30;62.20
27492;DHT22;14927;51.210;6.838;2024-02-26T05:12:33;11.30;62.30
27492;DHT22;14927;51.210;6.838;2024-02-26T05:15:19;11.30;62.40
27492;DHT22;14927;51.210;6.838;2024-02-26T05:18:04;11.40;62.30
27492;DHT22;14927;51.210;6.838;2024-02-26T05:20:48;11.30;62.20
27492;DHT22;14927;51.210;6.838;2024-02-26T05:23:33;11.20;62.30
27492;DHT22;14927;51.210;6.838;2024-02-26T05:26:22;11.20;62.40
27492;DHT22;14927;51.210;6.838;2024-02-26T05:29:06;11.20;62.50
27492;DHT22;14927;51.210;6.838;2024-02-26T05:31:51;11.10;62.60
27492;DHT22;14927;51.210;6.838;2024-02-26T05:34:38;11.10;62.70
27492;DHT22;14927;51.210;6.838;2024-02-26T05:37:22;11.10;63.00
27492;DHT22;14927;51.210;6.838;2024-02-26T05:40:07;11.00;63.00
27492;DHT22;14927;51.210;6.838;2024-02-26T05:42:52;11.00;63.30
27492;DHT22;14927;51.210;6.838;2024-02-26T05:45:37;11.00;63.40
27492;DHT22;14927;51.210;6.838;2024-02-26T05:48:21;11.00;63.40
27492;DHT22;14927;51.210;6.838;2024-02-26T05:51:06;11.00;63.30
27492;DHT22;14927;51.210;6.838;2024-02-26T05:53:50;11.00;63.40
27492;DHT22;14927;51.210;6.838;2024-02-26T05:56:37;11.00;64.30
27492;DHT22;14927;51.210;6.838;2024-02-26T05:59:23;11.00;64.30
27492;DHT22;14927;51.210;6.838;2024-02-26T06:02:07;10.90;64.40
27492;DHT22;14927;51.210;6.838;2024-02-26T06:04:54;10.90;63.60
27492;DHT22;14927;51.210;6.838;2024-02-26T06:07:39;10.90;63.80
27492;DHT22;14927;51.210;6.838;2024-02-26T06:10:23;10.90;63.80
27492;DHT22;14927;51.210;6.838;2024-02-26T06:13:08;10.90;63.70
27492;DHT22;14927;51.210;6.838;2024-02-26T06:15:52;10.80;63.70
27492;DHT22;14927;51.210;6.838;2024-02-26T06:18:37;10.80;63.90
27492;DHT22;14927;51.210;6.838;2024-02-26T06:21:25;10.80;64.10
27492;DHT22;14927;51.210;6.838;2024-02-26T06:24:09;10.70;64.30
27492;DHT22;14927;51.210;6.838;2024-02-26T06:26:54;10.70;64.50
27492;DHT22;14927;51.210;6.838;2024-02-26T06:29:38;10.70;64.60
27492;DHT22;14927;51.210;6.838;2024-02-26T06:32:24;10.80;64.80
27492;DHT22;14927;51.210;6.838;2024-02-26T06:35:08;10.80;65.00
27492;DHT22;14927;51.210;6.838;2024-02-26T06:37:55;10.70;65.10
27492;DHT22;14927;51.210;6.838;2024-02-26T06:40:40;10.70;65.10
27492;DHT22;14927;51.210;6.838;2024-02-26T06:43:25;10.70;65.10
27492;DHT22;14927;51.210;6.838;2024-02-26T06:46:09;11.00;65.30
27492;DHT22;14927;51.210;6.838;2024-02-26T06:48:54;10.80;65.10
27492;DHT22;14927;51.210;6.838;2024-02-26T06:51:38;10.80;65.20
27492;DHT22;14927;51.210;6.838;2024-02-26T06:54:23;10.90;65.30
27492;DHT22;14927;51.210;6.838;2024-02-26T06:57:08;10.90;65.20
27492;DHT22;14927;51.210;6.838;2024-02-26T06:59:52;10.90;65.20
27492;DHT22;14927;51.210;6.838;2024-02-26T07:02:37;11.20;65.40
27492;DHT22;14927;51.210;6.838;2024-02-26T07:05:21;11.00;65.10
27492;DHT22;14927;51.210;6.838;2024-02-26T07:08:06;11.10;65.20
27492;DHT22;14927;51.210;6.838;2024-02-26T07:10:50;11.00;65.10
27492;DHT22;14927;51.210;6.838;2024-02-26T07:13:44;11.00;65.10
27492;DHT22;14927;51.210;6.838;2024-02-26T07:16:41;10.90;65.30
27492;DHT22;14927;51.210;6.838;2024-02-26T07:19:25;11.00;65.20
27492;DHT22;14927;51.210;6.838;2024-02-26T07:22:10;11.10;65.30
27492;DHT22;14927;51.210;6.838;2024-02-26T07:24:54;11.10;65.20
27492;DHT22;14927;51.210;6.838;2024-02-26T07:27:39;11.10;65.20
27492;DHT22;14927;51.210;6.838;2024-02-26T07:30:24;11.10;65.10
27492;DHT22;14927;51.210;6.838;2024-02-26T07:33:09;11.10;65.20
27492;DHT22;14927;51.210;6.838;2024-02-26T07:35:53;11.10;65.20
27492;DHT22;14927;51.210;6.838;2024-02-26T07:38:38;11.20;65.30
27492;DHT22;14927;51.210;6.838;2024-02-26T07:41:23;11.10;65.40
27492;DHT22;14927;51.210;6.838;2024-02-26T07:44:07;11.10;65.40
27492;DHT22;14927;51.210;6.838;2024-02-26T07:46:52;11.10;65.50
27492;DHT22;14927;51.210;6.838;2024-02-26T07:49:37;11.10;65.50
27492;DHT22;14927;51.210;6.838;2024-02-26T07:52:22;11.40;65.70
27492;DHT22;14927;51.210;6.838;2024-02-26T07:55:07;11.20;65.60
27492;DHT22;14927;51.210;6.838;2024-02-26T07:57:57;11.20;65.70
27492;DHT22;14927;51.210;6.838;2024-02-26T08:00:44;11.30;66.00
27492;DHT22;14927;51.210;6.838;2024-02-26T08:03:30;11.40;66.00
27492;DHT22;14927;51.210;6.838;2024-02-26T08:06:16;11.20;65.90
27492;DHT22;14927;51.210;6.838;2024-02-26T08:09:00;11.20;65.90
27492;DHT22;14927;51.210;6.838;2024-02-26T08:11:45;11.20;65.70
27492;DHT22;14927;51.210;6.838;2024-02-26T08:14:30;11.20;65.80
27492;DHT22;14927;51.210;6.838;2024-02-26T08:17:16;11.20;65.80
27492;DHT22;14927;51.210;6.838;2024-02-26T08:20:02;11.30;65.90
27492;DHT22;14927;51.210;6.838;2024-02-26T08:22:46;11.20;65.90
27492;DHT22;14927;51.210;6.838;2024-02-26T08:25:31;11.20;66.10
27492;DHT22;14927;51.210;6.838;2024-02-26T08:28:16;11.30;66.20
27492;DHT22;14927;51.210;6.838;2024-02-26T08:31:02;11.30;66.10
27492;DHT22;14927;51.210;6.838;2024-02-26T08:33:46;11.30;66.20
27492;DHT22;14927;51.210;6.838;2024-02-26T08:36:33;11.30;66.20
27492;DHT22;14927;51.210;6.838;2024-02-26T08:39:18;11.30;66.20
27492;DHT22;14927;51.210;6.838;2024-02-26T08:42:03;11.50;66.20
27492;DHT22;14927;51.210;6.838;2024-02-26T08:44:47;11.40;66.20
27492;DHT22;14927;51.210;6.838;2024-02-26T08:47:32;11.40;66.30
27492;DHT22;14927;51.210;6.838;2024-02-26T08:50:16;11.50;66.30
27492;DHT22;14927;51.210;6.838;2024-02-26T08:53:01;11.40;66.20
27492;DHT22;14927;51.210;6.838;2024-02-26T08:55:47;11.40;66.10
27492;DHT22;14927;51.210;6.838;2024-02-26T08:58:32;11.50;66.10
27492;DHT22;14927;51.210;6.838;2024-02-26T09:01:16;11.50;66.10
27492;DHT22;14927;51.210;6.838;2024-02-26T09:04:01;11.50;66.10
27492;DHT22;14927;51.210;6.838;2024-02-26T09:06:46;11.50;66.20
27492;DHT22;14927;51.210;6.838;2024-02-26T09:09:31;11.50;66.30
27492;DHT22;14927;51.210;6.838;2024-02-26T09:12:15;11.50;66.20
27492;DHT22;14927;51.210;6.838;2024-02-26T09:15:00;11.60;66.20
27492;DHT22;14927;51.210;6.838;2024-02-26T09:17:45;11.60;66.30
27492;DHT22;14927;51.210;6.838;2024-02-26T09:20:33;11.60;66.30
27492;DHT22;14927;51.210;6.838;2024-02-26T09:23:18;11.60;66.20
27492;DHT22;14927;51.210;6.838;2024-02-26T09:26:05;11.60;66.10
27492;DHT22;14927;51.210;6.838;2024-02-26T09:28:50;11.60;66.20
27492;DHT22;14927;51.210;6.838;2024-02-26T09:31:35;11.50;66.20
27492;DHT22;14927;51.210;6.838;2024-02-26T09:34:21;11.70;66.40
27492;DHT22;14927;51.210;6.838;2024-02-26T09:37:05;11.60;66.40
27492;DHT22;14927;51.210;6.838;2024-02-26T09:39:50;11.60;66.30
27492;DHT22;14927;51.210;6.838;2024-02-26T09:42:35;11.60;66.40
27492;DHT22;14927;51.210;6.838;2024-02-26T09:45:21;11.60;66.40
27492;DHT22;14927;51.210;6.838;2024-02-26T09:48:10;11.60;66.40
27492;DHT22;14927;51.210;6.838;2024-02-26T09:54:13;11.60;66.60
27492;DHT22;14927;51.210;6.838;2024-02-26T09:57:02;11.60;66.80
27492;DHT22;14927;51.210;6.838;2024-02-26T09:59:53;11.60;67.00
27492;DHT22;14927;51.210;6.838;2024-02-26T10:02:38;11.60;67.00
27492;DHT22;14927;51.210;6.838;2024-02-26T10:05:24;11.60;66.90
27492;DHT22;14927;51.210;6.838;2024-02-26T10:08:12;11.60;66.80
27492;DHT22;14927;51.210;6.838;2024-02-26T10:10:58;11.70;67.60
27492;DHT22;14927;51.210;6.838;2024-02-26T10:13:46;11.70;67.10
27492;DHT22;14927;51.210;6.838;2024-02-26T10:20:41;11.50;67.00
27492;DHT22;14927;51.210;6.838;2024-02-26T10:23:26;11.60;67.40
27492;DHT22;14927;51.210;6.838;2024-02-26T10:26:12;11.80;67.10
27492;DHT22;14927;51.210;6.838;2024-02-26T10:29:05;11.70;67.10
27492;DHT22;14927;51.210;6.838;2024-02-26T10:31:53;11.80;67.40
27492;DHT22;14927;51.210;6.838;2024-02-26T10:34:44;11.70;67.20
27492;DHT22;14927;51.210;6.838;2024-02-26T10:37:29;11.90;67.40
27492;DHT22;14927;51.210;6.838;2024-02-26T10:40:14;11.70;67.40
27492;DHT22;14927;51.210;6.838;2024-02-26T10:43:04;11.70;67.70
27492;DHT22;14927;51.210;6.838;2024-02-26T10:45:58;11.80;67.90
27492;DHT22;14927;51.210;6.838;2024-02-26T10:48:50;11.80;67.70
27492;DHT22;14927;51.210;6.838;2024-02-26T10:51:37;11.80;67.80
27492;DHT22;14927;51.210;6.838;2024-02-26T10:54:25;11.80;67.50
27492;DHT22;14927;51.210;6.838;2024-02-26T10:57:12;11.80;67.50
27492;DHT22;14927;51.210;6.838;2024-02-26T11:00:02;11.90;67.50
27492;DHT22;14927;51.210;6.838;2024-02-26T11:02:55;11.90;67.50
27492;DHT22;14927;51.210;6.838;2024-02-26T11:05:43;11.70;67.30
27492;DHT22;14927;51.210;6.838;2024-02-26T11:08:28;11.90;67.30
27492;DHT22;14927;51.210;6.838;2024-02-26T11:11:15;11.90;67.50
27492;DHT22;14927;51.210;6.838;2024-02-26T11:14:01;11.90;67.60
27492;DHT22;14927;51.210;6.838;2024-02-26T11:16:49;11.90;67.60
27492;DHT22;14927;51.210;6.838;2024-02-26T11:19:36;11.90;67.70
27492;DHT22;14927;51.210;6.838;2024-02-26T11:22:25;11.90;67.90
27492;DHT22;14927;51.210;6.838;2024-02-26T11:25:12;12.00;68.10
27492;DHT22;14927;51.210;6.838;2024-02-26T11:28:02;12.10;68.10
27492;DHT22;14927;51.210;6.838;2024-02-26T11:30:49;12.20;68.00
27492;DHT22;14927;51.210;6.838;2024-02-26T11:33:34;12.00;67.70
27492;DHT22;14927;51.210;6.838;2024-02-26T11:36:25;12.00;67.70
27492;DHT22;14927;51.210;6.838;2024-02-26T11:39:11;12.00;67.80
27492;DHT22;14927;51.210;6.838;2024-02-26T11:42:06;12.00;67.90
27492;DHT22;14927;51.210;6.838;2024-02-26T11:44:50;12.00;67.90
27492;DHT22;14927;51.210;6.838;2024-02-26T11:47:35;12.10;67.60
27492;DHT22;14927;51.210;6.838;2024-02-26T11:50:39;12.30;67.60
27492;DHT22;14927;51.210;6.838;2024-02-26T11:53:30;12.00;67.70
27492;DHT22;14927;51.210;6.838;2024-02-26T11:59:11;12.20;67.40
27492;DHT22;14927;51.210;6.838;2024-02-26T12:01:56;12.00;67.10
27492;DHT22;14927;51.210;6.838;2024-02-26T12:04:41;12.00;66.90
27492;DHT22;14927;51.210;6.838;2024-02-26T12:07:26;12.00;66.70
27492;DHT22;14927;51.210;6.838;2024-02-26T12:13:13;12.00;67.20
27492;DHT22;14927;51.210;6.838;2024-02-26T12:15:58;12.00;67.00
27492;DHT22;14927;51.210;6.838;2024-02-26T12:18:44;12.00;67.10
27492;DHT22;14927;51.210;6.838;2024-02-26T12:21:30;12.10;67.20
27492;DHT22;14927;51.210;6.838;2024-02-26T12:24:15;11.90;67.10
27492;DHT22;14927;51.210;6.838;2024-02-26T12:27:00;12.00;67.00
27492;DHT22;14927;51.210;6.838;2024-02-26T12:29:44;11.90;66.90
27492;DHT22;14927;51.210;6.838;2024-02-26T12:32:29;11.90;67.90
27492;DHT22;14927;51.210;6.838;2024-02-26T12:35:15;11.90;67.20
27492;DHT22;14927;51.210;6.838;2024-02-26T12:38:00;11.90;67.30
27492;DHT22;14927;51.210;6.838;2024-02-26T12:44:10;11.90;67.70
27492;DHT22;14927;51.210;6.838;2024-02-26T12:47:04;11.90;67.70
27492;DHT22;14927;51.210;6.838;2024-02-26T12:49:48;11.90;68.00
27492;DHT22;14927;51.210;6.838;2024-02-26T12:52:35;12.00;67.90
27492;DHT22;14927;51.210;6.838;2024-02-26T12:55:29;11.90;67.80
27492;DHT22;14927;51.210;6.838;2024-02-26T13:01:47;12.00;68.10
27492;DHT22;14927;51.210;6.838;2024-02-26T13:04:32;12.10;68.20
27492;DHT22;14927;51.210;6.838;2024-02-26T13:07:18;12.00;68.30
27492;DHT22;14927;51.210;6.838;2024-02-26T13:10:03;12.10;68.50
27492;DHT22;14927;51.210;6.838;2024-02-26T13:12:49;12.10;68.50
27492;DHT22;14927;51.210;6.838;2024-02-26T13:15:36;12.10;68.60
27492;DHT22;14927;51.210;6.838;2024-02-26T13:18:21;12.10;68.60
27492;DHT22;14927;51.210;6.838;2024-02-26T13:21:16;12.20;68.70
27492;DHT22;14927;51.210;6.838;2024-02-26T13:24:02;12.20;68.80
27492;DHT22;14927;51.210;6.838;2024-02-26T13:26:54;12.20;68.60
27492;DHT22;14927;51.210;6.838;2024-02-26T13:29:39;12.20;68.70
27492;DHT22;14927;51.210;6.838;2024-02-26T13:32:24;12.40;68.70
27492;DHT22;14927;51.210;6.838;2024-02-26T13:35:15;12.30;68.60
27492;DHT22;14927;51.210;6.838;2024-02-26T13:37:59;12.30;68.60
27492;DHT22;14927;51.210;6.838;2024-02-26T13:40:44;12.30;68.60
27492;DHT22;14927;51.210;6.838;2024-02-26T13:43:29;12.40;68.50
27492;DHT22;14927;51.210;6.838;2024-02-26T13:46:16;12.40;68.30
27492;DHT22;14927;51.210;6.838;2024-02-26T13:49:00;12.40;68.10
27492;DHT22;14927;51.210;6.838;2024-02-26T13:51:45;12.40;67.90
27492;DHT22;14927;51.210;6.838;2024-02-26T13:54:30;12.40;67.70
27492;DHT22;14927;51.210;6.838;2024-02-26T13:57:14;12.50;67.50
27492;DHT22;14927;51.210;6.838;2024-02-26T13:59:59;12.60;67.20
27492;DHT22;14927;51.210;6.838;2024-02-26T14:02:44;12.50;66.90
27492;DHT22;14927;51.210;6.838;2024-02-26T14:05:31;12.50;66.80
27492;DHT22;14927;51.210;6.838;2024-02-26T14:08:18;12.50;66.70
27492;DHT22;14927;51.210;6.838;2024-02-26T14:11:03;12.50;66.60
27492;DHT22;14927;51.210;6.838;2024-02-26T14:13:48;12.50;66.70
27492;DHT22;14927;51.210;6.838;2024-02-26T14:16:33;12.40;66.70
27492;DHT22;14927;51.210;6.838;2024-02-26T14:19:17;12.50;66.50
27492;DHT22;14927;51.210;6.838;2024-02-26T14:22:02;12.50;66.50
27492;DHT22;14927;51.210;6.838;2024-02-26T14:24:46;12.50;66.70
27492;DHT22;14927;51.210;6.838;2024-02-26T14:27:31;12.50;66.70
27492;DHT22;14927;51.210;6.838;2024-02-26T14:30:20;12.50;66.50
27492;DHT22;14927;51.210;6.838;2024-02-26T14:33:05;12.40;66.30
27492;DHT22;14927;51.210;6.838;2024-02-26T14:35:50;12.60;66.30
27492;DHT22;14927;51.210;6.838;2024-02-26T14:38:35;12.50;66.10
27492;DHT22;14927;51.210;6.838;2024-02-26T14:41:20;12.50;66.10
27492;DHT22;14927;51.210;6.838;2024-02-26T14:44:04;12.60;66.20
27492;DHT22;14927;51.210;6.838;2024-02-26T14:46:49;12.50;66.10
27492;DHT22;14927;51.210;6.838;2024-02-26T14:49:34;12.60;65.90
27492;DHT22;14927;51.210;6.838;2024-02-26T14:52:19;12.60;66.00
27492;DHT22;14927;51.210;6.838;2024-02-26T14:55:03;12.60;66.10
27492;DHT22;14927;51.210;6.838;2024-02-26T14:57:49;12.60;66.20
27492;DHT22;14927;51.210;6.838;2024-02-26T15:00:34;12.60;66.10
27492;DHT22;14927;51.210;6.838;2024-02-26T15:03:19;12.70;66.00
27492;DHT22;14927;51.210;6.838;2024-02-26T15:06:04;12.70;65.90
27492;DHT22;14927;51.210;6.838;2024-02-26T15:08:49;12.70;65.40
27492;DHT22;14927;51.210;6.838;2024-02-26T15:11:38;12.80;65.20
27492;DHT22;14927;51.210;6.838;2024-02-26T15:14:23;12.80;64.80
27492;DHT22;14927;51.210;6.838;2024-02-26T15:17:09;12.80;64.70
27492;DHT22;14927;51.210;6.838;2024-02-26T15:19:57;12.80;64.60
27492;DHT22;14927;51.210;6.838;2024-02-26T15:22:43;12.80;64.60
27492;DHT22;14927;51.210;6.838;2024-02-26T15:25:27;12.80;64.50
27492;DHT22;14927;51.210;6.838;2024-02-26T15:28:12;12.90;64.30
27492;DHT22;14927;51.210;6.838;2024-02-26T15:30:59;12.90;64.10
27492;DHT22;14927;51.210;6.838;2024-02-26T15:33:46;13.00;64.10
27492;DHT22;14927;51.210;6.838;2024-02-26T15:36:35;12.90;64.00
27492;DHT22;14927;51.210;6.838;2024-02-26T15:39:19;12.90;64.00
27492;DHT22;14927;51.210;6.838;2024-02-26T15:42:05;12.90;63.90
27492;DHT22;14927;51.210;6.838;2024-02-26T15:44:50;12.90;63.90
27492;DHT22;14927;51.210;6.838;2024-02-26T15:47:34;13.00;63.80
27492;DHT22;14927;51.210;6.838;2024-02-26T15:50:19;12.90;63.60
27492;DHT22;14927;51.210;6.838;2024-02-26T15:53:06;12.90;63.50
27492;DHT22;14927;51.210;6.838;2024-02-26T15:55:51;12.90;63.30
27492;DHT22;14927;51.210;6.838;2024-02-26T15:58:36;13.00;63.30
27492;DHT22;14927;51.210;6.838;2024-02-26T16:01:20;13.00;63.10
27492;DHT22;14927;51.210;6.838;2024-02-26T16:04:05;12.90;63.10
27492;DHT22;14927;51.210;6.838;2024-02-26T16:07:06;12.90;62.90
27492;DHT22;14927;51.210;6.838;2024-02-26T16:09:59;12.90;62.40
27492;DHT22;14927;51.210;6.838;2024-02-26T16:12:53;12.90;62.50
27492;DHT22;14927;51.210;6.838;2024-02-26T16:15:58;12.90;62.10
27492;DHT22;14927;51.210;6.838;2024-02-26T16:18:51;12.60;61.50
27492;DHT22;14927;51.210;6.838;2024-02-26T16:21:53;13.00;61.80
27492;DHT22;14927;51.210;6.838;2024-02-26T16:24:38;12.90;61.70
27492;DHT22;14927;51.210;6.838;2024-02-26T16:27:28;12.80;61.40
27492;DHT22;14927;51.210;6.838;2024-02-26T16:30:25;12.60;60.90
27492;DHT22;14927;51.210;6.838;2024-02-26T16:33:42;12.80;61.00
27492;DHT22;14927;51.210;6.838;2024-02-26T16:36:27;12.80;60.90
27492;DHT22;14927;51.210;6.838;2024-02-26T16:39:15;12.70;60.80
27492;DHT22;14927;51.210;6.838;2024-02-26T16:42:05;12.70;60.70
27492;DHT22;14927;51.210;6.838;2024-02-26T16:45:21;12.70;60.50
27492;DHT22;14927;51.210;6.838;2024-02-26T16:48:14;12.70;60.30
27492;DHT22;14927;51.210;6.838;2024-02-26T16:50:59;12.40;60.60
27492;DHT22;14927;51.210;6.838;2024-02-26T16:53:46;12.50;60.50
27492;DHT22;14927;51.210;6.838;2024-02-26T16:56:45;12.50;60.30
27492;DHT22;14927;51.210;6.838;2024-02-26T16:59:30;12.60;60.50
27492;DHT22;14927;51.210;6.838;2024-02-26T17:02:15;12.50;60.40
27492;DHT22;14927;51.210;6.838;2024-02-26T17:05:20;12.50;60.40
27492;DHT22;14927;51.210;6.838;2024-02-26T17:08:13;12.60;60.20
27492;DHT22;14927;51.210;6.838;2024-02-26T17:10:57;12.50;60.50
27492;DHT22;14927;51.210;6.838;2024-02-26T17:13:45;12.50;60.50
27492;DHT22;14927;51.210;6.838;2024-02-26T17:16:59;12.20;60.40
27492;DHT22;14927;51.210;6.838;2024-02-26T17:19:45;12.80;60.50
27492;DHT22;14927;51.210;6.838;2024-02-26T17:22:31;12.40;60.60
27492;DHT22;14927;51.210;6.838;2024-02-26T17:25:17;12.50;60.50
27492;DHT22;14927;51.210;6.838;2024-02-26T17:28:25;12.50;60.40
27492;DHT22;14927;51.210;6.838;2024-02-26T17:31:17;12.50;60.20
27492;DHT22;14927;51.210;6.838;2024-02-26T17:34:04;12.50;60.30
27492;DHT22;14927;51.210;6.838;2024-02-26T17:36:56;12.40;60.20
27492;DHT22;14927;51.210;6.838;2024-02-26T17:39:43;12.50;60.30
27492;DHT22;14927;51.210;6.838;2024-02-26T17:42:27;12.60;60.30
27492;DHT22;14927;51.210;6.838;2024-02-26T17:45:12;12.40;60.10
27492;DHT22;14927;51.210;6.838;2024-02-26T17:47:57;12.50;60.10
27492;DHT22;14927;51.210;6.838;2024-02-26T17:50:42;12.40;60.10